Text analysis for JT (joyce_tru)

Return to profile of JT (joyce_tru)

View texts not yet raced by JT (joyce_tru)

Sorted by best race

Rank Text Best WPM Overall Difficulty Relative Speed Text Length Races Average WPM Last race
1. You don't know what's in store, but you know what you're her... 143.84 1.1193 0.2186 66 1 143.84 2024-03-27
2. Sometimes you're the windshield, sometimes you're the bug. S... 138.06 1.0191 0.2650 274 1 138.06 2024-03-29
3. Radiation could be precisely determined, in principle, if we... 135.83 0.9709 0.2925 397 1 135.83 2024-03-30
4. You shared something horrible with me, gave me no time to pr... 135.82 1.0802 0.1831 170 1 135.82 2024-03-27
5. I hate this. I hate being here. I hate that you have to be h... 135.00 1.0320 0.2237 471 1 135.00 2024-03-27
6. I can buy myself flowers, write my name in the sand. Talk to... 128.80 1.1004 0.0976 206 1 128.80 2024-03-29
7. Listen carefully, my friend. You are stuck in a paradox. It ... 128.03 1.0419 0.1490 242 1 128.03 2024-03-27
8. Where there is an emptiness, the mind will obligingly fill i... 126.46 1.0118 0.1644 169 1 126.46 2024-03-27
9. I remember it Ed, that story you told me, came clear back to... 126.26 1.0517 0.1227 379 1 126.26 2024-03-27
10. In one small part of space, the war continues. In war, there... 126.12 1.0035 0.1696 368 1 126.12 2024-03-27
11. Little bird, tell me, where do you go to get those colors of... 124.60 1.0115 0.1474 433 1 124.60 2024-03-30
12. I was crying pointlessly on the kitchen floor. As was common... 124.59 0.9972 0.1617 608 1 124.59 2024-03-27
13. She had never observed his face more composed and she grabbe... 119.99 1.0493 0.0668 860 1 119.99 2024-03-27
14. It is known that many of the germs which cause diseases cann... 119.37 1.0309 0.0794 483 1 119.37 2024-03-27
15. The clues we've uncovered during our search have led me to b... 118.35 1.0213 0.0795 318 1 118.35 2024-03-30
16. There are usually three types of people I deal with when sel... 115.86 1.0105 0.0672 348 1 115.86 2024-03-30
17. Well I watch you tangle every weekend. It might start differ... 114.69 1.0405 0.0263 220 1 114.69 2024-03-30
18. When I was a young man, I had liberty, but I did not see it.... 114.35 1.0442 0.0194 286 1 114.35 2024-03-30
19. Esteban stood at the front of the room, staring at the page.... 110.97 1.0518 -0.0196 327 1 110.97 2024-03-27
20. Since the 1980s virtually all the sodas and most of the frui... 110.87 0.9881 0.0431 424 1 110.87 2024-03-27
21. This was supposed to be a question. Not a poem, confession o... 110.25 1.0612 -0.0357 163 1 110.25 2024-03-30
22. Is this the real life? Is this just fantasy? Caught in a lan... 108.57 0.9632 0.0466 234 1 108.57 2024-03-27
23. When you're dead, they really fix you up. I hope to hell whe... 106.41 0.9842 0.0056 324 1 106.41 2024-03-27
24. Even there, in the mines, underground, I may find a human he... 98.38 0.9984 -0.0833 409 1 98.38 2024-03-27
25. Where I come from, there's a terrible drought. We saw pictur... 97.32 0.9596 -0.0544 169 1 97.32 2024-03-27
26. There is more to color than a swatch in a book, or a pull do... 97.30 0.9544 -0.0494 260 1 97.30 2024-03-27
27. Fool, prate not to me about covenants. There can be no coven... 96.53 1.0050 -0.1071 308 1 96.53 2024-03-27
28. Have you ever felt so strong that it made you feel weak? Lon... 95.49 1.0338 -0.1456 294 1 95.49 2024-03-27
29. If the cause of death is written within 40 seconds of writin... 90.21 1.0317 -0.1926 289 1 90.21 2024-03-27
30. I think that those two people want to be together. I think t... 88.24 1.0952 -0.2745 216 1 88.24 2024-03-27
31. From 1955 to 1990, the value of Japanese real estate increas... 86.24 0.9426 -0.1405 293 1 86.24 2024-03-27